Hlavní strana
METAR-TAF:

METAR-TAF

Letiště :

Porto Alegre, Rio Grande do Sul, Brazílie

zeměpisná šířka: 30-00S, zeměpisná délka: 051-11W, výška: 3 m

Aktuální stav počasí

Zpráva byla vytvořena před 39 minutami, v 05:00 UTC
Východoseverovýchodní vítr 13 kt
Teplota 19°C
Vlhkost vzduchu 100%
Tlak 1011 hPa
Viditelnost: 5000 m
Skoro jasno ve výšce 4500 ft, Cumulonimbus.
Zataženo ve výšce 6000 ft
bouřka, déšť

METAR: SBPA 240500Z 07013KT 5000 TSRA FEW045CB OVC060 19/19 Q1011

Čas: 02:39 (05:39 UTC)

Předpověď počasí

Zpráva byla vytvořena před 7 hodinami a 9 minutami, v 22:30 UTC
Předpověď platná od 24 v 00 UTC do 24 v 24 UTC
Severoseverovýchodní vítr 12 kt
Viditelnost 10 km a více
Oblačno až skoro zataženo ve výšce 3000 ft
Pravděpodobnost 40%
od 24 v 06 UTC do 24 v 14 UTC
Viditelnost: 8000 m
Oblačno až skoro zataženo ve výšce 1000 ft
Oblačno až skoro zataženo ve výšce 2000 ft
déšť

TAF: SBPA 232230Z 2400/2424 03012KT 9999 BKN030 TN18/2409Z TX22/2417Z PROB40 2406/2414 8000 RA BKN010 BKN020 RMK PEB

Stav a předpovědi počasí z více než 4 000 letišť (zprávy METAR a TAF).

Červené a žluté tečky na mapě představují dostupné meteorologické stanice.

Když kurzor umístíte na tečku, zobrazí se název stanice.

Pak kliknutím zobrazíte stav a předpověď počasí.

Chcete-li změnit mapu, kliknutím na zelené tlačítko se znaménkem +mapu přiblížíte, kliknutím na zelené tlačítko se znaménkem – mapu oddálíte a kliknutím na zelené šipky přejdete na sousední mapy.


METAR-TAF: